Time;durP1;ratioP1;P1;durP2;ratioP2;P2;SDS_P1;SDS_P2;PMS_P1;PMS_P2;Temp;Humidity;BMP_temperature;BMP_pressure;BME280_temperature;BME280_humidity;BME280_pressure;Samples;Min_cycle;Max_cycle;Signal;HPM_P1;HPM_P2
2023/07/15 00:02:46;;;;;;;6.43;3.13;;;18.70;1.00;;;;;;4991227;28;20392;-81
2023/07/15 00:08:36;;;;;;;10.67;3.43;;;18.60;1.00;;;;;;4993508;28;20711;-73
2023/07/15 00:11:03;;;;;;;8.07;3.30;;;18.50;1.00;;;;;;4991398;28;20442;-73
2023/07/15 00:13:29;;;;;;;6.00;3.10;;;18.50;1.00;;;;;;5004912;28;20514;-73
2023/07/15 00:15:54;;;;;;;10.53;3.00;;;18.50;1.00;;;;;;4997725;28;20508;-73
2023/07/15 00:18:21;;;;;;;5.23;3.27;;;18.50;1.00;;;;;;4996980;28;20196;-73
2023/07/15 00:20:48;;;;;;;9.80;3.17;;;18.50;1.00;;;;;;4997489;28;20189;-73
2023/07/15 00:23:24;;;;;;;7.10;3.10;;;18.40;1.00;;;;;;5004421;28;20503;-81
2023/07/15 00:26:35;;;;;;;10.07;3.40;;;18.30;1.00;;;;;;4996281;28;20459;-81
2023/07/15 00:29:03;;;;;;;8.10;3.80;;;18.40;1.00;;;;;;4996268;28;20769;-81
2023/07/15 00:38:23;;;;;;;7.43;3.70;;;18.20;1.00;;;;;;5003997;28;20462;-82
2023/07/15 00:41:00;;;;;;;4.90;3.10;;;18.10;1.00;;;;;;4998641;28;20773;-81
2023/07/15 00:44:00;;;;;;;12.90;3.83;;;18.10;1.00;;;;;;4988540;28;20931;-81
2023/07/15 00:46:48;;;;;;;4.67;2.80;;;18.10;1.00;;;;;;5007763;28;20460;-82
2023/07/15 00:53:11;;;;;;;6.17;3.00;;;18.00;1.00;;;;;;4996260;28;20402;-83
2023/07/15 01:02:21;;;;;;;11.80;2.90;;;17.90;1.00;;;;;;5002521;28;20390;-82
2023/07/15 01:08:11;;;;;;;11.30;3.30;;;17.70;1.00;;;;;;5002335;28;20246;-73
2023/07/15 01:10:37;;;;;;;9.27;3.90;;;17.70;1.00;;;;;;4996403;28;20784;-73
2023/07/15 01:13:05;;;;;;;9.47;3.53;;;17.70;1.00;;;;;;5003158;28;20430;-73
2023/07/15 01:15:31;;;;;;;12.70;3.37;;;17.60;1.00;;;;;;5001162;28;20188;-73
2023/07/15 01:17:58;;;;;;;10.07;3.30;;;;;;;;;;4997099;28;20946;-73
2023/07/15 01:20:25;;;;;;;5.73;3.37;;;17.60;1.00;;;;;;4995039;28;20270;-73
2023/07/15 01:26:14;;;;;;;12.10;3.70;;;17.50;1.00;;;;;;4988157;28;20955;-81
2023/07/15 01:28:40;;;;;;;4.23;3.27;;;;;;;;;;4994507;28;20432;-82
2023/07/15 01:31:21;;;;;;;5.00;3.27;;;17.40;1.00;;;;;;5010172;28;20471;-81
2023/07/15 01:37:41;;;;;;;10.10;3.57;;;17.30;1.00;;;;;;4985979;28;20457;-81
2023/07/15 01:47:35;;;;;;;3.63;3.30;;;17.20;1.00;;;;;;4986473;28;20431;-82
2023/07/15 01:53:22;;;;;;;5.33;3.73;;;17.10;1.00;;;;;;4986584;28;20515;-74
2023/07/15 01:55:48;;;;;;;12.30;3.23;;;17.10;1.00;;;;;;5005323;28;20844;-73
2023/07/15 01:58:14;;;;;;;6.40;3.20;;;17.00;1.00;;;;;;4993539;28;20497;-73
2023/07/15 02:00:40;;;;;;;5.00;3.30;;;17.10;1.00;;;;;;4993531;28;20594;-73
2023/07/15 02:03:11;;;;;;;3.47;3.00;;;17.00;1.00;;;;;;5005231;28;20425;-73
2023/07/15 02:05:42;;;;;;;6.90;3.13;;;17.00;1.00;;;;;;4997829;28;20199;-73
2023/07/15 02:08:07;;;;;;;10.40;3.50;;;17.00;1.00;;;;;;4996366;28;20404;-74
2023/07/15 02:10:33;;;;;;;4.67;3.60;;;17.00;1.00;;;;;;4996749;28;20883;-73
2023/07/15 02:12:59;;;;;;;12.00;3.63;;;17.00;1.00;;;;;;4995506;28;20544;-73
2023/07/15 02:15:24;;;;;;;6.77;3.50;;;16.90;1.00;;;;;;4993346;28;20206;-73
2023/07/15 02:17:54;;;;;;;3.87;3.13;;;16.90;1.00;;;;;;4998244;28;20438;-73
2023/07/15 02:20:21;;;;;;;5.00;2.83;;;16.90;1.00;;;;;;4996403;28;20245;-73
2023/07/15 02:22:47;;;;;;;5.10;3.43;;;16.90;1.00;;;;;;4994972;28;20400;-73
2023/07/15 02:25:13;;;;;;;3.87;3.47;;;16.90;1.00;;;;;;4994710;28;20490;-73
2023/07/15 02:27:39;;;;;;;7.70;3.23;;;16.90;1.00;;;;;;4990359;28;20412;-73
2023/07/15 02:30:08;;;;;;;6.17;3.53;;;16.90;1.00;;;;;;4996669;28;20225;-73
2023/07/15 02:32:42;;;;;;;5.77;3.33;;;16.90;1.00;;;;;;4985598;28;20205;-73
2023/07/15 02:35:09;;;;;;;5.80;3.30;;;16.80;1.00;;;;;;5011032;28;20873;-73
2023/07/15 02:37:36;;;;;;;9.60;3.97;;;16.80;1.00;;;;;;5003467;28;20413;-73
2023/07/15 02:40:04;;;;;;;11.23;4.13;;;16.80;1.00;;;;;;4994966;28;20425;-73
2023/07/15 02:42:33;;;;;;;4.97;3.33;;;16.80;1.00;;;;;;4994717;28;20430;-73
2023/07/15 02:45:04;;;;;;;12.53;4.00;;;16.80;1.00;;;;;;4995093;28;20431;-73
2023/07/15 02:47:31;;;;;;;9.33;3.13;;;16.70;1.00;;;;;;5001018;28;20471;-73
2023/07/15 02:50:06;;;;;;;8.30;3.80;;;16.70;1.00;;;;;;4995849;28;20466;-73
2023/07/15 02:52:33;;;;;;;16.40;3.97;;;16.70;1.00;;;;;;4993950;28;20549;-73
2023/07/15 02:55:00;;;;;;;8.43;3.67;;;16.60;1.00;;;;;;5000064;28;20473;-73
2023/07/15 02:57:29;;;;;;;11.87;4.30;;;16.50;1.00;;;;;;5002672;28;20423;-73
2023/07/15 02:59:56;;;;;;;9.43;3.90;;;16.50;1.00;;;;;;4988407;28;20767;-73
2023/07/15 03:02:23;;;;;;;8.50;4.33;;;16.50;1.00;;;;;;4997363;28;20748;-73
2023/07/15 03:04:51;;;;;;;7.60;3.47;;;16.50;1.00;;;;;;5002061;28;20475;-74
2023/07/15 03:07:17;;;;;;;6.47;3.47;;;16.50;1.00;;;;;;4993871;28;20430;-73
2023/07/15 03:10:36;;;;;;;8.63;3.30;;;16.40;1.00;;;;;;4991439;28;20408;-81
2023/07/15 03:13:17;;;;;;;7.60;4.03;;;16.50;1.00;;;;;;4994537;28;20501;-81
2023/07/15 03:19:05;;;;;;;3.80;3.27;;;16.30;1.00;;;;;;4981734;28;20408;-86
2023/07/15 03:28:30;;;;;;;4.57;4.03;;;;;;;;;;4991960;28;20428;-89
2023/07/15 03:31:47;;;;;;;6.33;3.90;;;16.10;1.00;;;;;;5013378;28;20951;-89
2023/07/15 03:34:29;;;;;;;6.73;3.77;;;16.10;1.00;;;;;;4993372;28;20407;-89
2023/07/15 03:40:17;;;;;;;6.73;3.80;;;16.10;1.00;;;;;;5001333;28;20423;-89
2023/07/15 03:46:05;;;;;;;7.30;4.00;;;16.00;1.00;;;;;;4995676;28;20281;-89
2023/07/15 03:48:30;;;;;;;6.43;3.67;;;15.90;1.00;;;;;;4989031;28;20436;-89
2023/07/15 03:51:26;;;;;;;7.30;4.40;;;16.00;1.00;;;;;;4993721;28;20190;-89
2023/07/15 03:54:23;;;;;;;9.90;4.50;;;16.10;1.00;;;;;;4995948;28;20285;-89
2023/07/15 04:00:16;;;;;;;9.63;3.93;;;16.10;1.00;;;;;;5013274;28;20429;-89
2023/07/15 04:06:04;;;;;;;12.43;4.20;;;16.00;1.00;;;;;;4997989;28;20992;-90
2023/07/15 04:11:52;;;;;;;12.93;3.63;;;16.10;1.00;;;;;;4994063;28;20197;-86
2023/07/15 04:15:11;;;;;;;3.83;3.47;;;16.00;1.00;;;;;;5005026;28;20409;-87
2023/07/15 04:20:59;;;;;;;6.87;3.80;;;16.10;1.00;;;;;;5004720;28;20881;-86
2023/07/15 04:23:29;;;;;;;7.30;4.10;;;16.20;1.00;;;;;;4998239;28;20478;-86
2023/07/15 04:26:32;;;;;;;7.83;4.30;;;16.20;1.00;;;;;;4996429;28;20230;-90
2023/07/15 04:32:23;;;;;;;7.40;4.00;;;16.20;1.00;;;;;;4998090;28;20959;-89
2023/07/15 04:34:53;;;;;;;4.90;4.13;;;16.40;1.00;;;;;;5015940;28;20431;-89
2023/07/15 04:37:20;;;;;;;6.00;4.07;;;16.30;1.00;;;;;;4996619;28;20440;-89
2023/07/15 04:43:07;;;;;;;7.03;4.60;;;16.50;1.00;;;;;;4994555;28;23122;-87
2023/07/15 04:45:53;;;;;;;7.40;3.73;;;16.50;1.00;;;;;;4977234;28;20466;-87
2023/07/15 04:48:23;;;;;;;5.07;3.67;;;16.70;1.00;;;;;;4997274;28;20182;-87
2023/07/15 05:04:17;;;;;;;6.40;4.07;;;16.90;1.00;;;;;;4990938;28;20498;-89
2023/07/15 05:10:53;;;;;;;11.33;3.77;;;17.20;1.00;;;;;;4990888;28;20190;-90
2023/07/15 05:17:05;;;;;;;6.00;3.80;;;17.50;1.00;;;;;;5015754;28;20422;-90
2023/07/15 05:23:12;;;;;;;5.40;3.90;;;17.80;1.00;;;;;;5000297;28;20429;-90
2023/07/15 05:26:17;;;;;;;4.53;3.53;;;17.90;1.00;;;;;;5014744;28;20490;-89
2023/07/15 05:28:48;;;;;;;7.43;3.67;;;18.20;1.00;;;;;;4995033;28;20455;-90
2023/07/15 05:34:48;;;;;;;9.03;4.23;;;;;;;;;;4994337;28;20432;-90
2023/07/15 05:43:57;;;;;;;6.30;3.77;;;18.90;1.00;;;;;;5012184;28;20461;-87
2023/07/15 05:49:45;;;;;;;5.77;4.20;;;19.30;1.00;;;;;;4981321;28;20267;-87
2023/07/15 05:55:59;;;;;;;13.10;4.23;;;20.00;1.00;;;;;;4995645;28;20672;-91
2023/07/15 05:58:26;;;;;;;5.07;3.93;;;20.10;1.00;;;;;;4992286;28;20507;-90
2023/07/15 06:00:53;;;;;;;8.63;3.90;;;20.40;1.00;;;;;;4998722;28;20452;-91
2023/07/15 06:06:41;;;;;;;5.50;3.80;;;21.30;1.00;;;;;;4984652;28;20556;-87
2023/07/15 06:09:59;;;;;;;5.13;3.83;;;21.90;1.00;;;;;;4994221;28;20399;-87
2023/07/15 06:13:05;;;;;;;8.07;3.67;;;22.50;1.00;;;;;;5011858;28;20186;-85
2023/07/15 06:16:17;;;;;;;12.13;3.83;;;22.80;1.00;;;;;;4995581;28;20464;-84
2023/07/15 06:22:05;;;;;;;15.70;3.60;;;23.10;1.00;;;;;;4991983;28;20412;-84
2023/07/15 06:27:54;;;;;;;6.43;3.23;;;23.20;1.00;;;;;;5003475;28;20564;-88
2023/07/15 06:30:41;;;;;;;9.53;3.97;;;23.20;1.00;;;;;;4998517;28;20434;-88
2023/07/15 06:40:23;;;;;;;5.30;3.00;;;23.60;1.00;;;;;;4989539;28;20468;-88
2023/07/15 06:43:17;;;;;;;8.93;3.43;;;23.90;1.00;;;;;;4974346;28;20432;-85
2023/07/15 06:49:29;;;;;;;4.10;3.27;;;24.20;1.00;;;;;;4998413;28;20409;-83
2023/07/15 06:52:23;;;;;;;5.93;3.50;;;24.40;1.00;;;;;;5009756;28;20485;-85
2023/07/15 06:54:53;;;;;;;4.00;3.33;;;24.60;1.00;;;;;;4996960;28;20442;-85
2023/07/15 06:58:11;;;;;;;3.93;2.77;;;24.80;1.00;;;;;;5012807;28;20456;-89
2023/07/15 07:03:59;;;;;;;6.63;3.30;;;25.30;1.00;;;;;;5007070;28;20408;-90
2023/07/15 07:10:53;;;;;;;5.53;2.40;;;25.90;1.00;;;;;;5003036;28;20191;-89
2023/07/15 07:13:23;;;;;;;3.33;2.73;;;26.70;1.00;;;;;;5007819;28;20435;-85
2023/07/15 07:16:00;;;;;;;4.67;3.00;;;27.00;1.00;;;;;;5007369;28;20486;-85
2023/07/15 07:19:02;;;;;;;5.57;2.60;;;27.30;1.00;;;;;;5004341;28;20449;-85
2023/07/15 07:24:51;;;;;;;3.03;2.50;;;27.80;1.00;;;;;;4978320;28;20826;-85
2023/07/15 07:27:53;;;;;;;10.90;2.70;;;28.00;1.00;;;;;;4994583;28;20871;-90
2023/07/15 07:30:53;;;;;;;3.30;2.37;;;28.00;1.00;;;;;;4997267;28;20575;-89
2023/07/15 07:36:40;;;;;;;2.50;2.40;;;28.00;1.00;;;;;;5001643;28;20481;-89
2023/07/15 07:39:23;;;;;;;4.97;2.87;;;28.20;1.00;;;;;;4996897;28;20850;-90
2023/07/15 07:42:41;;;;;;;5.20;2.70;;;28.30;1.00;;;;;;4994668;28;20179;-85
2023/07/15 07:45:53;;;;;;;3.03;2.60;;;28.50;1.00;;;;;;5002606;28;21004;-85
2023/07/15 07:51:40;;;;;;;2.63;2.47;;;28.60;1.00;;;;;;4982071;28;20504;-85
2023/07/15 07:54:24;;;;;;;9.90;2.50;;;;;;;;;;5015644;28;20414;-85
2023/07/15 07:56:53;;;;;;;2.50;2.30;;;28.60;1.00;;;;;;4998166;28;21232;-84
2023/07/15 07:59:24;;;;;;;11.10;2.70;;;29.00;1.00;;;;;;4999867;28;21004;-81
2023/07/15 08:01:53;;;;;;;15.43;3.13;;;29.10;1.00;;;;;;5000098;28;21071;-84
2023/07/15 08:07:41;;;;;;;4.80;2.37;;;29.30;1.00;;;;;;4997595;28;20445;-87
2023/07/15 08:10:53;;;;;;;7.27;2.57;;;29.30;1.00;;;;;;5017202;28;20432;-86
2023/07/15 08:13:19;;;;;;;5.40;3.17;;;29.40;1.00;;;;;;5012964;28;20176;-86
2023/07/15 08:15:53;;;;;;;5.70;2.90;;;29.20;1.00;;;;;;4997836;28;21014;-87
2023/07/15 08:18:23;;;;;;;2.97;2.20;;;29.30;1.00;;;;;;4997351;28;20442;-87
2023/07/15 08:24:23;;;;;;;3.17;2.70;;;29.60;1.00;;;;;;5002509;28;20456;-83
2023/07/15 08:27:23;;;;;;;5.47;2.63;;;29.80;1.00;;;;;;5015531;28;20487;-83
2023/07/15 08:30:23;;;;;;;11.67;2.50;;;30.00;1.00;;;;;;5012588;28;20438;-84
2023/07/15 08:39:53;;;;;;;2.63;2.20;;;30.50;1.00;;;;;;4988260;28;20889;-83
2023/07/15 08:42:53;;;;;;;6.20;2.57;;;30.70;1.00;;;;;;5010886;28;20433;-84
2023/07/15 08:45:55;;;;;;;2.40;2.10;;;31.00;1.00;;;;;;4991131;28;20468;-83
2023/07/15 08:48:53;;;;;;;4.30;2.83;;;30.90;1.00;;;;;;4999694;28;20782;-83
2023/07/15 08:51:53;;;;;;;5.30;2.20;;;31.10;1.00;;;;;;5018643;28;20784;-84
2023/07/15 08:54:24;;;;;;;2.73;2.53;;;31.30;1.00;;;;;;5004598;28;20435;-84
2023/07/15 08:56:49;;;;;;;4.73;2.37;;;31.70;1.00;;;;;;4997310;28;20432;-85
2023/07/15 08:59:30;;;;;;;4.87;2.33;;;31.60;1.00;;;;;;5000101;28;20433;-85
2023/07/15 09:01:59;;;;;;;10.07;2.50;;;31.90;1.00;;;;;;5013924;28;20192;-84
2023/07/15 09:04:53;;;;;;;3.33;2.60;;;31.70;1.00;;;;;;4990033;28;20438;-84
2023/07/15 09:07:53;;;;;;;4.23;2.30;;;31.30;1.00;;;;;;5000772;28;20439;-85
2023/07/15 09:10:24;;;;;;;8.17;2.60;;;31.20;1.00;;;;;;4999763;28;20436;-83
2023/07/15 09:16:53;;;;;;;11.73;2.40;;;31.00;1.00;;;;;;5000579;28;20999;-89
2023/07/15 09:19:53;;;;;;;9.30;2.53;;;31.40;1.00;;;;;;5014410;28;20931;-90
2023/07/15 09:22:54;;;;;;;4.83;2.27;;;31.50;1.00;;;;;;4975481;28;20434;-90
2023/07/15 09:25:24;;;;;;;2.77;2.47;;;31.50;1.00;;;;;;5008043;28;20476;-89
2023/07/15 09:27:54;;;;;;;2.40;2.20;;;31.30;1.00;;;;;;5000141;28;20456;-94
2023/07/15 09:30:30;;;;;;;3.00;2.30;;;31.20;1.00;;;;;;4999498;28;20436;-92
2023/07/15 09:33:06;;;;;;;2.73;2.20;;;31.00;1.00;;;;;;4990220;28;20439;-93
2023/07/15 09:35:53;;;;;;;4.77;2.20;;;30.80;1.00;;;;;;4995194;28;20511;-92
2023/07/15 09:38:53;;;;;;;2.73;2.20;;;30.80;1.00;;;;;;4988265;28;20436;-93
2023/07/15 09:41:35;;;;;;;8.40;2.30;;;30.90;1.00;;;;;;4997029;28;20443;-93
2023/07/15 09:44:32;;;;;;;4.30;2.37;;;30.80;1.00;;;;;;4983898;28;20963;-93
2023/07/15 09:50:20;;;;;;;9.20;2.87;;;30.50;1.00;;;;;;4991691;28;20428;-93
2023/07/15 09:52:46;;;;;;;14.57;2.90;;;30.30;1.00;;;;;;4995361;28;20932;-93
2023/07/15 09:55:24;;;;;;;7.80;2.40;;;;;;;;;;5010683;28;20186;-93
2023/07/15 09:58:17;;;;;;;8.73;2.87;;;30.10;1.00;;;;;;5010661;28;20441;-92
2023/07/15 10:01:14;;;;;;;6.70;3.33;;;30.00;1.00;;;;;;5003180;28;20927;-92
2023/07/15 10:04:02;;;;;;;11.10;3.00;;;29.80;1.00;;;;;;4990938;28;20448;-92
2023/07/15 10:07:23;;;;;;;3.83;3.20;;;29.70;1.00;;;;;;5010410;28;20473;-92
2023/07/15 10:10:23;;;;;;;5.17;2.63;;;29.70;1.00;;;;;;4986984;28;20433;-92
2023/07/15 10:13:04;;;;;;;4.17;3.03;;;29.60;1.00;;;;;;4997597;28;20436;-91
2023/07/15 10:15:53;;;;;;;3.83;3.27;;;29.60;1.00;;;;;;5005748;28;20864;-87
2023/07/15 10:18:28;;;;;;;6.40;3.00;;;29.60;1.00;;;;;;4992847;28;20531;-85
2023/07/15 10:24:17;;;;;;;4.03;2.90;;;29.40;1.00;;;;;;4987463;28;20434;-87
2023/07/15 10:26:53;;;;;;;3.40;2.30;;;29.30;1.00;;;;;;4992375;28;20476;-87
2023/07/15 10:29:41;;;;;;;6.80;2.63;;;29.10;1.00;;;;;;5015727;28;20440;-90
2023/07/15 10:32:23;;;;;;;6.97;2.77;;;29.00;1.00;;;;;;5005329;28;20457;-91
2023/07/15 10:34:55;;;;;;;6.53;2.90;;;28.90;1.00;;;;;;4991541;28;20434;-91
2023/07/15 10:37:24;;;;;;;2.43;2.30;;;29.00;1.00;;;;;;4993820;28;20521;-91
2023/07/15 10:39:53;;;;;;;3.90;2.83;;;29.00;1.00;;;;;;4985845;28;21013;-92
2023/07/15 10:42:24;;;;;;;8.73;3.10;;;28.90;1.00;;;;;;5008487;28;20517;-92
2023/07/15 10:44:54;;;;;;;3.80;2.80;;;29.00;1.00;;;;;;4996305;28;20471;-87
2023/07/15 10:47:24;;;;;;;14.63;2.73;;;29.00;1.00;;;;;;4993031;28;20443;-87
2023/07/15 10:49:53;;;;;;;9.60;2.80;;;29.10;1.00;;;;;;4988080;28;20548;-86
2023/07/15 10:52:24;;;;;;;20.03;3.40;;;29.40;1.00;;;;;;4991573;28;21021;-87
2023/07/15 10:55:06;;;;;;;11.03;3.93;;;29.50;1.00;;;;;;4989016;28;20443;-86
2023/07/15 10:57:41;;;;;;;20.53;4.83;;;29.60;1.00;;;;;;4991629;28;20440;-86
2023/07/15 11:00:53;;;;;;;9.50;2.80;;;29.60;1.00;;;;;;4991702;28;20494;-86
2023/07/15 11:03:23;;;;;;;7.30;3.50;;;29.60;1.00;;;;;;5014187;28;20431;-86
2023/07/15 11:06:05;;;;;;;7.13;2.57;;;30.10;1.00;;;;;;4994329;28;20464;-87
2023/07/15 11:11:53;;;;;;;21.23;4.17;;;30.70;1.00;;;;;;4987490;28;20480;-86
2023/07/15 11:14:53;;;;;;;4.73;3.30;;;30.50;1.00;;;;;;5006048;28;20440;-86
2023/07/15 11:17:19;;;;;;;10.50;3.23;;;29.90;1.00;;;;;;4992831;28;20465;-87
2023/07/15 11:19:48;;;;;;;11.00;3.40;;;29.60;1.00;;;;;;4993322;28;20420;-88
2023/07/15 11:22:24;;;;;;;17.13;3.13;;;29.60;1.00;;;;;;4997854;28;20198;-86
2023/07/15 11:25:23;;;;;;;8.57;3.20;;;29.50;1.00;;;;;;5000230;28;20438;-86
2023/07/15 11:27:53;;;;;;;6.40;3.30;;;29.20;1.00;;;;;;4991398;28;20443;-87
2023/07/15 11:30:24;;;;;;;5.60;3.10;;;29.30;1.00;;;;;;4988526;28;20461;-86
2023/07/15 11:33:17;;;;;;;8.10;3.10;;;29.30;1.00;;;;;;4990809;28;20443;-86
2023/07/15 11:39:23;;;;;;;5.10;3.07;;;29.40;1.00;;;;;;5000380;28;20459;-86
2023/07/15 11:41:54;;;;;;;4.53;3.03;;;29.50;1.00;;;;;;4993786;28;20455;-86
2023/07/15 11:47:42;;;;;;;17.33;3.27;;;29.30;1.00;;;;;;4991508;28;20471;-87
2023/07/15 11:53:51;;;;;;;12.70;3.57;;;28.80;1.00;;;;;;4995682;28;20727;-86
2023/07/15 12:06:24;;;;;;;8.10;3.40;;;29.10;1.00;;;;;;5012137;28;20480;-86
2023/07/15 12:15:34;;;;;;;6.43;3.10;;;29.50;1.00;;;;;;5003060;28;20760;-92
2023/07/15 12:21:35;;;;;;;6.93;3.80;;;29.80;1.00;;;;;;5015261;28;20259;-90
2023/07/15 12:24:53;;;;;;;11.17;3.80;;;29.70;1.00;;;;;;4997451;28;20431;-90
2023/07/15 12:37:24;;;;;;;5.43;3.23;;;29.30;1.00;;;;;;5014862;28;20461;-83
2023/07/15 12:43:30;;;;;;;8.47;3.67;;;29.20;1.00;;;;;;4995606;28;20319;-85
2023/07/15 12:49:17;;;;;;;9.23;3.30;;;29.80;1.00;;;;;;5008350;28;20426;-89
2023/07/15 12:52:11;;;;;;;6.63;3.33;;;30.10;1.00;;;;;;5010544;28;20433;-89
2023/07/15 13:01:21;;;;;;;7.17;3.47;;;29.50;1.00;;;;;;5005719;28;20398;-90
2023/07/15 13:07:29;;;;;;;5.17;3.27;;;29.20;1.00;;;;;;4997220;28;20197;-89
2023/07/15 13:10:23;;;;;;;3.93;3.43;;;29.10;1.00;;;;;;5023403;28;20424;-89
2023/07/15 13:13:17;;;;;;;5.57;3.80;;;29.00;1.00;;;;;;4995694;28;20465;-88
2023/07/15 13:19:23;;;;;;;9.70;3.27;;;26.90;1.00;;;;;;4991967;28;20785;-85
2023/07/15 13:21:53;;;;;;;5.43;3.60;;;26.50;1.00;;;;;;5010965;28;20501;-85
2023/07/15 13:27:41;;;;;;;8.20;3.53;;;26.60;1.00;;;;;;4983937;28;20978;-85
2023/07/15 13:33:48;;;;;;;6.60;3.50;;;27.20;1.00;;;;;;5004242;28;20605;-89
2023/07/15 13:36:17;;;;;;;4.93;3.03;;;27.30;1.00;;;;;;5006119;28;20479;-88
2023/07/15 13:39:05;;;;;;;9.90;3.57;;;27.30;1.00;;;;;;5010192;28;20420;-89
2023/07/15 13:41:47;;;;;;;3.67;2.90;;;27.40;1.00;;;;;;4995832;28;20422;-89
2023/07/15 13:44:23;;;;;;;12.00;3.50;;;27.50;1.00;;;;;;4977069;28;20493;-88
2023/07/15 13:46:53;;;;;;;9.43;3.77;;;27.30;1.00;;;;;;4979326;28;20483;-87
2023/07/15 13:49:30;;;;;;;5.00;3.27;;;27.50;1.00;;;;;;4994164;28;20553;-88
2023/07/15 13:51:58;;;;;;;5.30;3.77;;;27.10;1.00;;;;;;4995095;28;20470;-88
2023/07/15 13:54:24;;;;;;;6.83;3.53;;;27.00;1.00;;;;;;5002029;28;20503;-87
2023/07/15 13:57:41;;;;;;;8.03;3.70;;;27.00;1.00;;;;;;4994104;28;20958;-87
2023/07/15 14:00:18;;;;;;;8.43;4.27;;;;;;;;;;5007187;28;20542;-87
2023/07/15 14:02:44;;;;;;;7.30;3.70;;;26.20;1.00;;;;;;4997831;28;21232;-84
2023/07/15 14:09:06;;;;;;;11.13;4.60;;;25.60;1.00;;;;;;4999884;28;20191;-86
2023/07/15 14:11:36;;;;;;;8.73;4.20;;;25.40;1.00;;;;;;5002007;28;20528;-86
2023/07/15 14:14:06;;;;;;;10.17;5.13;;;25.10;1.00;;;;;;5024572;28;20438;-86
2023/07/15 14:16:36;;;;;;;13.00;5.13;;;24.90;1.00;;;;;;4997275;28;20449;-86
2023/07/15 14:19:12;;;;;;;8.40;4.70;;;24.80;1.00;;;;;;5003290;28;20521;-87
2023/07/15 14:21:37;;;;;;;6.10;4.90;;;24.60;1.00;;;;;;4998542;28;20417;-87
2023/07/15 14:24:04;;;;;;;11.70;5.63;;;24.20;1.00;;;;;;4994619;28;20440;-86
2023/07/15 14:26:30;;;;;;;7.13;4.80;;;24.20;1.00;;;;;;4993598;28;20206;-87
2023/07/15 14:28:57;;;;;;;8.50;5.40;;;24.00;1.00;;;;;;5001702;28;20446;-87
2023/07/15 14:31:22;;;;;;;11.70;4.90;;;24.00;1.00;;;;;;5001789;28;20526;-87
2023/07/15 14:33:53;;;;;;;7.27;5.60;;;24.00;1.00;;;;;;5001347;28;20463;-86
2023/07/15 14:36:22;;;;;;;18.80;6.30;;;23.60;1.00;;;;;;4994526;28;20568;-86
2023/07/15 14:38:48;;;;;;;11.83;5.70;;;23.60;1.00;;;;;;4994077;28;20531;-86
2023/07/15 14:41:14;;;;;;;8.20;5.67;;;23.50;1.00;;;;;;4998367;28;20431;-87
2023/07/15 14:43:41;;;;;;;7.37;4.97;;;23.50;1.00;;;;;;4994414;28;20686;-88
2023/07/15 14:46:08;;;;;;;10.30;5.67;;;23.50;1.00;;;;;;5011528;28;20223;-87
2023/07/15 14:49:23;;;;;;;19.83;6.27;;;23.60;1.00;;;;;;4997110;28;20442;-87
2023/07/15 14:51:50;;;;;;;9.77;5.67;;;23.50;1.00;;;;;;5009887;28;20558;-88
2023/07/15 14:55:05;;;;;;;13.37;7.10;;;23.50;1.00;;;;;;4994097;28;20511;-87
2023/07/15 14:58:11;;;;;;;13.13;6.67;;;23.40;1.00;;;;;;4983085;28;20446;-87
2023/07/15 15:00:59;;;;;;;15.13;6.47;;;23.40;1.00;;;;;;4989575;28;20437;-87
2023/07/15 15:07:12;;;;;;;15.53;7.33;;;23.30;1.00;;;;;;4992534;28;20466;-87
2023/07/15 15:09:54;;;;;;;10.83;7.00;;;23.10;1.00;;;;;;5000516;28;20503;-87
2023/07/15 15:16:00;;;;;;;14.90;7.00;;;23.00;1.00;;;;;;4992248;28;21029;-87
2023/07/15 15:19:05;;;;;;;12.77;6.70;;;23.00;1.00;;;;;;5000360;28;20454;-87
2023/07/15 15:28:15;;;;;;;13.80;7.20;;;23.00;1.00;;;;;;4982862;28;20464;-87
2023/07/15 15:34:02;;;;;;;10.07;6.70;;;22.80;1.00;;;;;;4997013;28;20180;-87
2023/07/15 15:37:17;;;;;;;13.83;6.70;;;22.60;1.00;;;;;;5017002;28;20951;-86
2023/07/15 15:40:18;;;;;;;16.77;6.70;;;22.70;1.00;;;;;;4995719;28;20753;-87
2023/07/15 15:49:27;;;;;;;15.20;7.70;;;22.50;1.00;;;;;;4990471;28;20413;-87
2023/07/15 15:52:35;;;;;;;12.17;7.20;;;22.60;1.00;;;;;;4992870;28;20512;-85
2023/07/15 15:55:41;;;;;;;12.47;7.20;;;22.60;1.00;;;;;;4994145;28;20666;-87
2023/07/15 16:01:29;;;;;;;10.70;6.93;;;;;;;;;;5001300;28;20601;-87
2023/07/15 16:04:00;;;;;;;9.60;6.63;;;;;;;;;;5002328;28;20467;-87
2023/07/15 16:13:09;;;;;;;15.67;7.40;;;23.20;1.00;;;;;;5010181;28;20437;-91
2023/07/15 16:15:35;;;;;;;14.10;7.37;;;23.30;1.00;;;;;;5010948;28;20432;-88
2023/07/15 16:18:53;;;;;;;10.40;7.00;;;23.40;1.00;;;;;;5003389;28;20188;-90
2023/07/15 16:24:41;;;;;;;11.23;6.10;;;23.90;1.00;;;;;;5005588;28;20944;-87
2023/07/15 16:27:11;;;;;;;9.80;5.83;;;25.20;1.00;;;;;;4989162;28;20477;-85
2023/07/15 16:30:05;;;;;;;10.00;5.73;;;25.30;1.00;;;;;;4994083;28;20192;-86
2023/07/15 16:35:53;;;;;;;8.67;4.47;;;30.70;1.00;;;;;;4994762;28;20511;-89
2023/07/15 16:41:47;;;;;;;9.63;4.07;;;32.30;1.00;;;;;;5001448;28;20230;-86
2023/07/15 16:51:00;;;;;;;7.20;4.63;;;30.30;1.00;;;;;;5009947;28;20472;-85
2023/07/15 16:56:47;;;;;;;8.00;4.80;;;29.30;1.00;;;;;;4997498;28;20411;-86
2023/07/15 16:59:59;;;;;;;7.47;5.27;;;28.80;1.00;;;;;;5000813;28;20442;-85
2023/07/15 17:05:47;;;;;;;8.03;5.23;;;;;;;;;;4998764;28;21028;-86
2023/07/15 17:11:35;;;;;;;16.03;5.30;;;;;;;;;;4976434;28;20913;-87
2023/07/15 17:17:23;;;;;;;6.73;4.80;;;32.00;1.00;;;;;;4982650;28;20494;-88
2023/07/15 17:19:49;;;;;;;6.87;4.00;;;32.80;1.00;;;;;;4987506;28;20511;-90
2023/07/15 17:22:59;;;;;;;6.43;4.27;;;32.30;1.00;;;;;;5007972;28;20185;-89
2023/07/15 17:28:47;;;;;;;5.27;4.00;;;31.10;1.00;;;;;;4985856;28;20424;-86
2023/07/15 17:41:19;;;;;;;8.27;5.87;;;28.60;1.00;;;;;;4994456;28;20941;-84
2023/07/15 17:43:45;;;;;;;8.27;5.40;;;27.70;1.00;;;;;;4987929;28;20466;-82
2023/07/15 17:46:25;;;;;;;10.00;5.43;;;27.60;1.00;;;;;;5000418;28;20318;-87
2023/07/15 17:48:54;;;;;;;6.67;5.23;;;27.00;1.00;;;;;;4994291;28;20211;-85
2023/07/15 17:51:47;;;;;;;9.07;5.50;;;26.90;1.00;;;;;;4991108;28;20460;-92
2023/07/15 17:54:47;;;;;;;8.77;5.33;;;26.90;1.00;;;;;;4990313;28;20467;-90
2023/07/15 18:01:29;;;;;;;5.67;4.90;;;26.60;1.00;;;;;;4984228;28;20423;-90
2023/07/15 18:04:00;;;;;;;9.23;5.50;;;26.50;1.00;;;;;;4994231;28;20563;-88
2023/07/15 18:07:19;;;;;;;8.67;5.53;;;26.50;1.00;;;;;;5007047;28;20460;-84
2023/07/15 18:09:59;;;;;;;6.30;4.70;;;26.20;1.00;;;;;;4990761;28;20417;-85
2023/07/15 18:12:41;;;;;;;7.63;4.70;;;26.30;1.00;;;;;;5003071;28;20481;-84
2023/07/15 18:18:29;;;;;;;4.93;4.47;;;26.20;1.00;;;;;;5005034;28;20402;-84
2023/07/15 18:21:17;;;;;;;5.87;4.33;;;26.00;1.00;;;;;;5002219;28;20416;-82
2023/07/15 18:24:17;;;;;;;6.40;4.60;;;25.80;1.00;;;;;;4996639;28;20186;-82
2023/07/15 18:30:47;;;;;;;6.00;4.57;;;25.50;1.00;;;;;;4983597;28;20461;-89
2023/07/15 18:36:48;;;;;;;4.70;4.17;;;24.80;1.00;;;;;;4975543;28;20923;-86
2023/07/15 18:39:47;;;;;;;6.43;4.73;;;24.80;1.00;;;;;;5010716;28;20449;-82
2023/07/15 18:42:41;;;;;;;12.70;5.23;;;24.70;1.00;;;;;;5006460;28;20431;-83
2023/07/15 18:48:29;;;;;;;6.00;4.40;;;24.40;1.00;;;;;;5013755;28;21162;-83
2023/07/15 18:54:17;;;;;;;5.47;4.60;;;24.40;1.00;;;;;;4993431;28;20189;-89
2023/07/15 18:57:17;;;;;;;9.10;4.73;;;24.40;1.00;;;;;;4995158;28;20431;-86
2023/07/15 19:07:17;;;;;;;7.70;4.60;;;24.20;1.00;;;;;;5001456;28;20462;-87
2023/07/15 19:10:11;;;;;;;8.47;5.00;;;24.10;1.00;;;;;;4998839;28;20440;-87
2023/07/15 19:15:58;;;;;;;10.63;5.57;;;24.00;1.00;;;;;;5017829;28;20525;-88
2023/07/15 19:19:17;;;;;;;8.97;5.57;;;23.80;1.00;;;;;;5024959;28;20494;-88
2023/07/15 19:21:54;;;;;;;5.70;4.87;;;23.70;1.00;;;;;;4996638;28;20284;-84
2023/07/15 19:28:17;;;;;;;19.47;5.50;;;23.50;1.00;;;;;;4987641;28;20430;-85
2023/07/15 19:31:29;;;;;;;11.30;5.17;;;23.40;1.00;;;;;;5003470;28;20961;-84
2023/07/15 19:37:18;;;;;;;11.43;5.10;;;23.20;1.00;;;;;;5011230;28;20410;-88
2023/07/15 19:43:18;;;;;;;6.60;5.30;;;23.00;1.00;;;;;;5004428;28;20465;-77
2023/07/15 19:46:17;;;;;;;7.50;5.70;;;23.00;1.00;;;;;;5003287;28;20443;-77
2023/07/15 19:49:17;;;;;;;13.90;5.50;;;22.90;1.00;;;;;;5012819;28;20418;-77
2023/07/15 19:55:05;;;;;;;7.50;5.80;;;22.80;1.00;;;;;;4991221;28;20392;-83
2023/07/15 20:00:48;;;;;;;8.00;5.60;;;22.70;1.00;;;;;;4991399;28;20199;-83
2023/07/15 20:06:35;;;;;;;8.37;5.77;;;22.60;1.00;;;;;;4981501;28;20812;-83
2023/07/15 20:12:25;;;;;;;5.20;4.67;;;22.40;1.00;;;;;;5008409;28;20170;-83
2023/07/15 20:21:34;;;;;;;11.83;5.40;;;22.20;1.00;;;;;;5014869;28;20962;-83
2023/07/15 20:24:18;;;;;;;16.10;5.80;;;22.20;1.00;;;;;;5002440;28;20438;-83
2023/07/15 20:27:17;;;;;;;5.13;4.63;;;22.20;1.00;;;;;;4996008;28;21004;-83
2023/07/15 20:29:54;;;;;;;12.63;5.60;;;22.00;1.00;;;;;;4980670;28;20452;-83
2023/07/15 20:35:44;;;;;;;10.50;5.70;;;21.90;1.00;;;;;;5012368;28;20466;-83
2023/07/15 20:41:48;;;;;;;12.00;5.50;;;21.90;1.00;;;;;;5008604;28;20918;-84
2023/07/15 20:44:18;;;;;;;10.10;4.97;;;21.80;1.00;;;;;;4998913;28;20763;-83